Time;durP1;ratioP1;P1;durP2;ratioP2;P2;SDS_P1;SDS_P2;PMS_P1;PMS_P2;Temp;Humidity;BMP_temperature;BMP_pressure;BME280_temperature;BME280_humidity;BME280_pressure;Samples;Min_cycle;Max_cycle;Signal;HPM_P1;HPM_P2
2023/11/02 00:02:38;;;;;;;7.75;3.72;;;;;;;;;;10255075;28;20526;-67
2023/11/02 00:07:44;;;;;;;11.73;3.28;;;;;;;;;;10248761;28;20039;-65
2023/11/02 00:12:44;;;;;;;7.20;3.72;;;;;;;;;;10247713;29;20031;-66
2023/11/02 00:17:48;;;;;;;8.55;3.60;;;;;;;;;;10243496;29;20494;-66
2023/11/02 00:22:49;;;;;;;6.70;3.58;;;;;;;;;;10247497;28;20023;-66
2023/11/02 00:27:49;;;;;;;8.68;3.63;;;;;;;;;;10243441;28;20031;-66
2023/11/02 00:32:50;;;;;;;9.18;3.65;;;;;;;;;;10242821;28;20032;-66
2023/11/02 00:37:50;;;;;;;11.05;4.40;;;;;;;;;;10227374;28;20035;-66
2023/11/02 00:42:51;;;;;;;4.47;3.35;;;;;;;;;;10245862;28;20035;-66
2023/11/02 00:47:54;;;;;;;5.82;3.60;;;;;;;;;;10241030;28;20035;-66
2023/11/02 00:52:55;;;;;;;10.88;3.42;;;;;;;;;;10245414;28;20507;-63
2023/11/02 00:57:58;;;;;;;4.97;3.40;;;;;;;;;;10234290;28;20067;-62
2023/11/02 01:02:59;;;;;;;8.45;3.35;;;;;;;;;;10233568;28;20039;-62
2023/11/02 01:08:00;;;;;;;5.30;2.83;;;;;;;;;;10233927;28;20035;-62
2023/11/02 01:13:09;;;;;;;4.32;3.25;;;;;;;;;;10246325;29;20032;-62
2023/11/02 01:18:11;;;;;;;6.50;3.10;;;;;;;;;;10246412;28;20436;-62
2023/11/02 01:23:16;;;;;;;6.65;3.10;;;;;;;;;;10245621;28;20027;-63
2023/11/02 01:28:23;;;;;;;4.93;2.85;;;;;;;;;;10246808;28;20434;-63
2023/11/02 01:33:38;;;;;;;6.93;3.10;;;;;;;;;;10245049;28;20038;-64
2023/11/02 01:38:39;;;;;;;7.10;3.40;;;;;;;;;;10233350;28;20027;-65
2023/11/02 01:44:00;;;;;;;5.13;3.35;;;;;;;;;;10237594;28;20054;-66
2023/11/02 01:49:14;;;;;;;4.68;2.85;;;;;;;;;;10245805;28;20110;-66
2023/11/02 01:54:33;;;;;;;3.72;3.00;;;;;;;;;;10243418;28;20442;-66
2023/11/02 01:59:48;;;;;;;4.10;3.03;;;;;;;;;;10232929;29;20122;-66
2023/11/02 02:05:11;;;;;;;4.80;3.20;;;;;;;;;;10235201;29;20046;-66
2023/11/02 02:10:22;;;;;;;5.78;2.75;;;;;;;;;;10225672;28;20542;-66
2023/11/02 02:15:41;;;;;;;4.40;2.60;;;;;;;;;;10241733;28;20023;-66
2023/11/02 02:20:50;;;;;;;7.60;2.92;;;;;;;;;;10244471;28;20530;-66
2023/11/02 02:26:27;;;;;;;4.75;3.25;;;;;;;;;;10242328;29;20558;-66
2023/11/02 02:32:01;;;;;;;3.35;2.70;;;;;;;;;;10244924;28;20093;-66
2023/11/02 02:37:33;;;;;;;4.70;2.83;;;;;;;;;;10234954;29;20089;-65
2023/11/02 02:42:36;;;;;;;4.68;2.70;;;;;;;;;;10220356;28;20046;-68
2023/11/02 02:47:39;;;;;;;4.13;3.08;;;;;;;;;;10236187;28;20031;-67
2023/11/02 02:52:47;;;;;;;5.80;3.08;;;;;;;;;;10245310;28;20047;-65
2023/11/02 02:57:51;;;;;;;5.05;3.05;;;;;;;;;;10248064;28;20094;-66
2023/11/02 03:02:54;;;;;;;4.60;2.53;;;;;;;;;;10250404;28;20034;-66
2023/11/02 03:08:02;;;;;;;4.50;2.60;;;;;;;;;;10247183;29;20117;-67
2023/11/02 03:13:04;;;;;;;4.70;2.60;;;;;;;;;;10249380;28;20511;-68
2023/11/02 03:18:12;;;;;;;3.20;2.60;;;;;;;;;;10248296;28;20113;-68
2023/11/02 03:23:43;;;;;;;4.72;2.83;;;;;;;;;;10250063;28;20027;-67
2023/11/02 03:28:52;;;;;;;5.18;2.70;;;;;;;;;;10245463;28;20032;-66
2023/11/02 03:34:04;;;;;;;6.03;3.08;;;;;;;;;;10249233;29;20483;-68
2023/11/02 03:39:40;;;;;;;4.85;2.88;;;;;;;;;;10248779;28;20027;-67
2023/11/02 03:44:57;;;;;;;3.70;2.40;;;;;;;;;;10248730;28;20039;-67
2023/11/02 03:50:06;;;;;;;5.00;3.00;;;;;;;;;;10249585;29;20511;-66
2023/11/02 03:55:37;;;;;;;3.53;2.38;;;;;;;;;;10244935;29;20031;-68
2023/11/02 04:01:00;;;;;;;5.15;2.40;;;;;;;;;;10243237;28;20034;-67
2023/11/02 04:06:10;;;;;;;5.60;2.58;;;;;;;;;;10245136;28;20046;-67
2023/11/02 04:12:03;;;;;;;2.53;2.20;;;;;;;;;;10246520;28;20062;-66
2023/11/02 04:17:05;;;;;;;3.58;2.53;;;;;;;;;;10242457;29;20043;-68
2023/11/02 04:22:07;;;;;;;4.22;2.50;;;;;;;;;;10246145;28;20031;-65
2023/11/02 04:27:09;;;;;;;3.40;2.42;;;;;;;;;;10247244;28;20035;-66
2023/11/02 04:32:09;;;;;;;2.60;2.40;;;;;;;;;;10248285;28;20778;-65
2023/11/02 04:37:14;;;;;;;3.95;2.58;;;;;;;;;;10248358;29;20031;-67
2023/11/02 04:42:17;;;;;;;3.72;2.50;;;;;;;;;;10247263;29;20028;-67
2023/11/02 04:47:18;;;;;;;2.60;2.30;;;;;;;;;;10247461;28;20038;-68
2023/11/02 04:52:18;;;;;;;3.22;2.28;;;;;;;;;;10248298;28;20055;-68
2023/11/02 04:57:19;;;;;;;6.82;2.25;;;;;;;;;;10247870;29;20039;-66
2023/11/02 05:02:19;;;;;;;4.75;2.38;;;;;;;;;;10245607;28;20035;-67
2023/11/02 05:07:20;;;;;;;3.78;2.63;;;;;;;;;;10241860;28;20050;-65
2023/11/02 05:12:21;;;;;;;2.90;2.42;;;;;;;;;;10239826;28;20039;-66
2023/11/02 05:17:21;;;;;;;3.15;2.28;;;;;;;;;;10246096;28;20034;-64
2023/11/02 05:22:22;;;;;;;3.35;2.33;;;;;;;;;;10245609;28;20039;-64
2023/11/02 05:27:24;;;;;;;3.53;2.22;;;;;;;;;;10246291;28;20035;-68
2023/11/02 05:32:24;;;;;;;2.65;2.13;;;;;;;;;;10244712;28;20499;-67
2023/11/02 05:37:25;;;;;;;2.55;2.30;;;;;;;;;;10245352;29;20028;-67
2023/11/02 05:42:25;;;;;;;3.20;2.13;;;;;;;;;;10245733;28;20100;-64
2023/11/02 05:47:26;;;;;;;3.42;2.22;;;;;;;;;;10245347;28;20031;-67
2023/11/02 05:52:27;;;;;;;2.80;2.10;;;;;;;;;;10245365;28;20043;-66
2023/11/02 05:57:30;;;;;;;4.60;2.35;;;;;;;;;;10243593;28;20038;-68
2023/11/02 06:02:32;;;;;;;3.17;2.15;;;;;;;;;;10245118;28;20049;-66
2023/11/02 06:07:34;;;;;;;1.98;1.88;;;;;;;;;;10242411;28;20033;-68
2023/11/02 06:12:34;;;;;;;2.53;2.15;;;;;;;;;;10242956;28;20505;-67
2023/11/02 06:17:35;;;;;;;2.78;2.22;;;;;;;;;;10243884;28;20027;-66
2023/11/02 06:22:39;;;;;;;2.70;2.00;;;;;;;;;;10237685;28;20074;-64
2023/11/02 06:27:39;;;;;;;2.58;1.73;;;;;;;;;;10247144;28;20028;-64
2023/11/02 06:32:40;;;;;;;5.30;2.35;;;;;;;;;;10251043;28;20035;-64
2023/11/02 06:38:00;;;;;;;2.55;2.25;;;;;;;;;;10249051;28;20498;-67
2023/11/02 06:43:02;;;;;;;2.80;2.30;;;;;;;;;;10248085;28;20027;-62
2023/11/02 06:48:03;;;;;;;2.35;2.13;;;;;;;;;;10247873;29;20036;-66
2023/11/02 06:53:03;;;;;;;3.45;2.10;;;;;;;;;;10261155;28;20043;-65
2023/11/02 06:58:04;;;;;;;2.55;2.20;;;;;;;;;;10251883;29;20097;-66
2023/11/02 07:03:05;;;;;;;2.05;1.85;;;;;;;;;;10242100;29;20039;-64
2023/11/02 07:08:05;;;;;;;2.28;2.10;;;;;;;;;;10251606;28;20046;-64
2023/11/02 07:13:07;;;;;;;2.13;1.92;;;;;;;;;;10247849;28;20035;-64
2023/11/02 07:18:08;;;;;;;4.25;2.38;;;;;;;;;;10240275;28;20056;-64
2023/11/02 07:23:09;;;;;;;2.83;2.15;;;;;;;;;;10231668;28;20031;-61
2023/11/02 07:28:10;;;;;;;1.90;1.80;;;;;;;;;;10249736;29;20038;-62
2023/11/02 07:33:10;;;;;;;5.25;1.95;;;;;;;;;;10247201;29;20360;-65
2023/11/02 07:38:11;;;;;;;2.58;2.00;;;;;;;;;;10250020;28;20483;-64
2023/11/02 07:43:12;;;;;;;2.92;1.92;;;;;;;;;;10249473;28;20045;-66
2023/11/02 07:48:13;;;;;;;5.00;2.40;;;;;;;;;;10250976;28;20035;-62
2023/11/02 07:53:13;;;;;;;2.10;1.90;;;;;;;;;;10248887;28;20522;-64
2023/11/02 07:58:14;;;;;;;3.03;2.15;;;;;;;;;;10248914;28;20035;-63
2023/11/02 08:03:15;;;;;;;2.90;2.17;;;;;;;;;;10247213;28;20038;-63
2023/11/02 08:08:15;;;;;;;3.47;2.17;;;;;;;;;;10248885;29;20038;-63
2023/11/02 08:13:16;;;;;;;3.55;1.80;;;;;;;;;;10248911;28;20015;-64
2023/11/02 08:18:17;;;;;;;3.42;2.00;;;;;;;;;;10239753;29;20054;-64
2023/11/02 08:23:18;;;;;;;2.75;1.90;;;;;;;;;;10253205;28;20031;-63
2023/11/02 08:28:18;;;;;;;1.80;1.70;;;;;;;;;;10247876;28;20035;-64
2023/11/02 08:33:19;;;;;;;2.33;2.13;;;;;;;;;;10247986;28;20028;-64
2023/11/02 08:38:20;;;;;;;3.75;2.10;;;;;;;;;;10239127;28;20031;-63
2023/11/02 08:43:20;;;;;;;2.42;2.22;;;;;;;;;;10235438;28;20043;-65
2023/11/02 08:48:31;;;;;;;;;;;;;;;;;;;;;
2023/11/02 08:53:32;;;;;;;2.35;2.15;;;;;;;;;;10247099;28;20075;-62
2023/11/02 08:58:35;;;;;;;1.70;1.60;;;;;;;;;;10247733;29;20032;-64
2023/11/02 09:03:38;;;;;;;3.72;2.22;;;;;;;;;;10246413;29;20039;-64
2023/11/02 09:08:38;;;;;;;2.42;1.90;;;;;;;;;;10246519;28;20598;-64
2023/11/02 09:13:41;;;;;;;1.95;1.77;;;;;;;;;;10246661;28;20038;-64
2023/11/02 09:18:42;;;;;;;3.40;1.73;;;;;;;;;;10244965;28;20031;-64
2023/11/02 09:23:43;;;;;;;4.80;2.20;;;;;;;;;;10242550;28;20055;-64
2023/11/02 09:28:47;;;;;;;2.15;1.92;;;;;;;;;;10237766;28;20039;-64
2023/11/02 09:33:47;;;;;;;2.35;1.85;;;;;;;;;;10245610;28;20594;-65
2023/11/02 09:38:48;;;;;;;2.63;1.67;;;;;;;;;;10245214;28;20042;-64
2023/11/02 09:43:49;;;;;;;2.05;1.70;;;;;;;;;;10245433;28;20072;-64
2023/11/02 09:48:50;;;;;;;1.55;1.45;;;;;;;;;;10245649;29;20034;-65
2023/11/02 09:53:51;;;;;;;4.15;1.85;;;;;;;;;;10232596;29;20097;-63
2023/11/02 09:58:52;;;;;;;11.38;2.08;;;;;;;;;;10244975;28;20039;-61
2023/11/02 10:03:56;;;;;;;14.82;2.75;;;;;;;;;;10240736;28;20391;-59
2023/11/02 10:08:58;;;;;;;11.13;3.40;;;;;;;;;;10238681;28;20100;-63
2023/11/02 10:14:09;;;;;;;;;;;;;;;;;;;;;
2023/11/02 10:19:10;;;;;;;7.47;2.75;;;;;;;;;;10244988;28;21552;-62
2023/11/02 10:24:11;;;;;;;4.10;2.33;;;;;;;;;;10243949;28;20035;-63
2023/11/02 10:29:12;;;;;;;8.65;2.28;;;;;;;;;;10244298;28;20609;-62
2023/11/02 10:34:13;;;;;;;7.78;2.70;;;;;;;;;;10227354;28;20035;-64
2023/11/02 10:39:22;;;;;;;9.25;2.80;;;;;;;;;;10230569;28;20042;-64
2023/11/02 10:44:33;;;;;;;3.13;2.55;;;;;;;;;;10230680;28;20032;-63
2023/11/02 10:49:37;;;;;;;6.35;2.30;;;;;;;;;;10246473;28;20050;-65
2023/11/02 10:54:54;;;;;;;6.93;2.75;;;;;;;;;;10233342;28;20502;-62
2023/11/02 10:59:59;;;;;;;4.97;2.53;;;;;;;;;;10233477;28;20031;-63
2023/11/02 11:05:04;;;;;;;6.35;2.40;;;;;;;;;;10241297;28;20064;-64
2023/11/02 11:10:06;;;;;;;3.22;1.98;;;;;;;;;;10242180;28;20041;-63
2023/11/02 11:15:11;;;;;;;8.00;2.03;;;;;;;;;;10240015;28;20108;-64
2023/11/02 11:20:15;;;;;;;4.25;2.00;;;;;;;;;;10255635;28;20391;-63
2023/11/02 11:25:16;;;;;;;5.97;2.25;;;;;;;;;;10247952;28;20039;-65
2023/11/02 11:30:22;;;;;;;4.07;2.03;;;;;;;;;;10249167;28;20113;-63
2023/11/02 11:35:23;;;;;;;4.32;1.85;;;;;;;;;;10243922;28;20031;-64
2023/11/02 11:40:23;;;;;;;3.35;2.00;;;;;;;;;;10248481;28;20031;-63
2023/11/02 11:45:34;;;;;;;4.90;2.35;;;;;;;;;;10232933;28;20046;-62
2023/11/02 11:50:43;;;;;;;3.25;1.85;;;;;;;;;;10262895;23;20052;-63
2023/11/02 11:55:49;;;;;;;3.05;1.85;;;;;;;;;;10250473;28;20106;-64
2023/11/02 12:00:53;;;;;;;4.50;1.70;;;;;;;;;;10248635;28;20054;-62
2023/11/02 12:05:56;;;;;;;3.95;1.73;;;;;;;;;;10236489;28;20066;-64
2023/11/02 12:10:59;;;;;;;4.45;1.90;;;;;;;;;;10245574;28;20039;-64
2023/11/02 12:16:03;;;;;;;4.22;1.85;;;;;;;;;;10246634;28;20035;-64
2023/11/02 12:21:11;;;;;;;3.95;2.03;;;;;;;;;;10251385;28;20042;-64
2023/11/02 12:26:13;;;;;;;2.00;1.90;;;;;;;;;;10243463;28;20479;-65
2023/11/02 12:31:26;;;;;;;9.13;2.00;;;;;;;;;;10245185;28;20121;-66
2023/11/02 12:36:27;;;;;;;6.32;2.00;;;;;;;;;;10244271;28;20027;-59
2023/11/02 12:41:33;;;;;;;3.97;1.77;;;;;;;;;;10255507;28;20038;-56
2023/11/02 12:46:41;;;;;;;5.15;1.88;;;;;;;;;;10232966;28;20039;-58
2023/11/02 12:51:43;;;;;;;;;;;;;;;;;;10237065;28;20047;-61
2023/11/02 12:56:50;;;;;;;3.90;2.05;;;;;;;;;;10242643;28;19980;-59
2023/11/02 13:01:55;;;;;;;11.23;2.10;;;;;;;;;;10231832;28;20035;-58
2023/11/02 13:06:59;;;;;;;5.63;1.92;;;;;;;;;;10247610;28;20023;-58
2023/11/02 13:11:59;;;;;;;6.68;1.90;;;;;;;;;;10244096;28;20475;-53
2023/11/02 13:17:03;;;;;;;6.03;1.70;;;;;;;;;;10243605;28;20070;-60
2023/11/02 13:22:03;;;;;;;3.28;2.00;;;;;;;;;;10242855;28;20059;-61
2023/11/02 13:27:05;;;;;;;2.10;1.73;;;;;;;;;;10243640;28;20039;-62
2023/11/02 13:32:06;;;;;;;4.43;1.75;;;;;;;;;;10237165;28;20698;-66
2023/11/02 13:37:07;;;;;;;3.20;2.05;;;;;;;;;;10235284;28;20471;-65
2023/11/02 13:42:08;;;;;;;5.30;1.95;;;;;;;;;;10217169;28;20039;-66
2023/11/02 13:47:10;;;;;;;4.55;2.17;;;;;;;;;;10243223;28;20027;-65
2023/11/02 13:52:11;;;;;;;2.70;1.58;;;;;;;;;;10241062;28;20102;-56
2023/11/02 13:57:11;;;;;;;4.25;2.30;;;;;;;;;;10234686;28;20083;-56
2023/11/02 14:02:12;;;;;;;3.47;1.98;;;;;;;;;;10240044;28;20031;-61
2023/11/02 14:07:16;;;;;;;2.95;1.80;;;;;;;;;;10243859;28;20031;-59
2023/11/02 14:12:22;;;;;;;2.03;1.55;;;;;;;;;;10245567;28;20027;-59
2023/11/02 14:17:25;;;;;;;4.60;2.10;;;;;;;;;;10240291;28;20061;-58
2023/11/02 14:22:25;;;;;;;2.45;1.45;;;;;;;;;;10222113;28;20040;-60
2023/11/02 14:27:26;;;;;;;4.53;2.03;;;;;;;;;;10230271;28;20035;-61
2023/11/02 14:32:29;;;;;;;2.72;1.60;;;;;;;;;;10240351;28;20043;-63
2023/11/02 14:37:30;;;;;;;5.93;1.80;;;;;;;;;;10244067;28;20387;-64
2023/11/02 14:42:36;;;;;;;2.60;1.75;;;;;;;;;;10235125;28;20035;-63
2023/11/02 14:47:37;;;;;;;5.85;1.80;;;;;;;;;;10240313;28;20035;-54
2023/11/02 14:52:39;;;;;;;3.15;1.60;;;;;;;;;;10236125;28;20094;-57
2023/11/02 14:57:42;;;;;;;5.22;1.90;;;;;;;;;;10244924;28;20563;-57
2023/11/02 15:02:43;;;;;;;6.05;1.70;;;;;;;;;;10248509;28;20030;-63
2023/11/02 15:07:44;;;;;;;5.60;1.70;;;;;;;;;;10241791;28;20034;-57
2023/11/02 15:12:44;;;;;;;4.85;2.10;;;;;;;;;;10251674;28;20102;-58
2023/11/02 15:17:45;;;;;;;3.33;1.48;;;;;;;;;;10245294;28;20054;-59
2023/11/02 15:22:45;;;;;;;3.45;1.60;;;;;;;;;;10242328;28;20038;-60
2023/11/02 15:27:46;;;;;;;8.10;1.75;;;;;;;;;;10236496;28;20035;-61
2023/11/02 15:32:49;;;;;;;2.55;1.70;;;;;;;;;;10241382;28;20039;-57
2023/11/02 15:37:50;;;;;;;2.83;1.63;;;;;;;;;;10244410;28;20035;-62
2023/11/02 15:42:50;;;;;;;9.23;1.60;;;;;;;;;;10247862;28;20059;-66
2023/11/02 15:47:51;;;;;;;10.70;2.00;;;;;;;;;;10250423;28;20024;-66
2023/11/02 15:52:54;;;;;;;4.40;1.45;;;;;;;;;;10239023;28;20514;-52
2023/11/02 15:57:55;;;;;;;2.10;1.70;;;;;;;;;;10232186;28;20034;-52
2023/11/02 16:02:56;;;;;;;4.55;1.40;;;;;;;;;;10239185;28;20034;-60
2023/11/02 16:07:57;;;;;;;2.08;1.50;;;;;;;;;;10247678;28;20031;-59
2023/11/02 16:13:00;;;;;;;5.70;1.88;;;;;;;;;;10247009;28;20110;-56
2023/11/02 16:18:01;;;;;;;3.40;2.13;;;;;;;;;;10237417;28;20086;-55
2023/11/02 16:23:02;;;;;;;6.57;2.17;;;;;;;;;;10236004;28;20043;-53
2023/11/02 16:28:02;;;;;;;4.22;2.60;;;;;;;;;;10240575;28;20206;-64
2023/11/02 16:33:03;;;;;;;5.30;2.17;;;;;;;;;;10225167;28;20047;-52
2023/11/02 16:38:07;;;;;;;2.28;1.75;;;;;;;;;;10223437;28;20363;-63
2023/11/02 16:43:09;;;;;;;5.45;2.00;;;;;;;;;;10236122;28;20028;-65
2023/11/02 16:48:10;;;;;;;2.97;1.63;;;;;;;;;;10232048;28;20400;-55
2023/11/02 16:53:16;;;;;;;2.55;1.55;;;;;;;;;;10230146;28;20058;-58
2023/11/02 16:58:16;;;;;;;7.03;1.90;;;;;;;;;;10221869;28;20103;-59
2023/11/02 17:03:17;;;;;;;5.85;1.90;;;;;;;;;;10224896;28;20031;-56
2023/11/02 17:08:19;;;;;;;3.28;1.85;;;;;;;;;;10242920;28;20034;-60
2023/11/02 17:13:19;;;;;;;2.15;1.42;;;;;;;;;;10232114;28;20127;-54
2023/11/02 17:18:20;;;;;;;1.90;1.60;;;;;;;;;;10218548;28;20129;-57
2023/11/02 17:23:21;;;;;;;2.95;1.85;;;;;;;;;;10217452;28;20066;-52
2023/11/02 17:28:22;;;;;;;3.80;1.90;;;;;;;;;;10228938;28;20033;-52
2023/11/02 17:33:22;;;;;;;3.80;1.80;;;;;;;;;;10223805;28;20027;-54
2023/11/02 17:38:23;;;;;;;4.80;1.90;;;;;;;;;;10226996;28;20595;-58
2023/11/02 17:43:24;;;;;;;2.50;1.88;;;;;;;;;;10220985;28;20031;-66
2023/11/02 17:48:25;;;;;;;4.93;1.65;;;;;;;;;;10223180;28;20047;-57
2023/11/02 17:53:27;;;;;;;2.13;1.70;;;;;;;;;;10209637;28;20051;-58
2023/11/02 17:58:28;;;;;;;2.50;1.90;;;;;;;;;;10228122;28;20031;-55
2023/11/02 18:03:31;;;;;;;2.65;1.60;;;;;;;;;;10216540;28;20491;-54
2023/11/02 18:08:31;;;;;;;3.95;2.10;;;;;;;;;;10221584;28;20175;-54
2023/11/02 18:13:32;;;;;;;3.22;1.83;;;;;;;;;;10221615;28;20528;-54
2023/11/02 18:18:32;;;;;;;2.15;1.42;;;;;;;;;;10231298;29;20082;-55
2023/11/02 18:23:33;;;;;;;3.97;1.73;;;;;;;;;;10238049;28;20031;-60
2023/11/02 18:28:33;;;;;;;3.60;1.67;;;;;;;;;;10228748;29;20023;-55
2023/11/02 18:33:34;;;;;;;2.22;1.80;;;;;;;;;;10221073;29;20039;-51
2023/11/02 18:38:35;;;;;;;3.35;2.08;;;;;;;;;;10234510;28;20035;-53
2023/11/02 18:43:37;;;;;;;2.65;1.70;;;;;;;;;;10235784;28;20456;-55
2023/11/02 18:48:38;;;;;;;2.67;1.92;;;;;;;;;;10244819;28;20024;-60
2023/11/02 18:53:38;;;;;;;1.95;1.70;;;;;;;;;;10220272;28;20387;-53
2023/11/02 18:58:40;;;;;;;1.70;1.50;;;;;;;;;;10227861;28;20431;-54
2023/11/02 19:03:41;;;;;;;2.30;1.70;;;;;;;;;;10221244;28;20032;-54
2023/11/02 19:08:43;;;;;;;2.13;1.45;;;;;;;;;;10232272;29;20471;-63
2023/11/02 19:13:44;;;;;;;1.52;1.40;;;;;;;;;;10224877;28;20027;-54
2023/11/02 19:18:45;;;;;;;3.53;1.70;;;;;;;;;;10224351;28;20380;-62
2023/11/02 19:23:45;;;;;;;3.28;1.23;;;;;;;;;;10227222;28;20547;-55
2023/11/02 19:28:46;;;;;;;1.85;1.52;;;;;;;;;;10229686;28;20028;-55
2023/11/02 19:33:47;;;;;;;1.70;1.42;;;;;;;;;;10220071;28;20032;-57
2023/11/02 19:38:50;;;;;;;5.32;1.60;;;;;;;;;;10233253;28;20039;-54
2023/11/02 19:43:51;;;;;;;5.90;1.80;;;;;;;;;;10226395;28;20028;-55
2023/11/02 19:48:51;;;;;;;6.80;1.50;;;;;;;;;;10231544;28;20475;-52
2023/11/02 19:53:52;;;;;;;2.20;1.40;;;;;;;;;;10243555;29;20491;-52
2023/11/02 19:58:53;;;;;;;4.32;1.83;;;;;;;;;;10250361;29;20042;-57
2023/11/02 20:03:53;;;;;;;2.15;1.50;;;;;;;;;;10246679;28;20034;-54
2023/11/02 20:08:54;;;;;;;4.80;1.70;;;;;;;;;;10257282;28;20023;-55
2023/11/02 20:13:54;;;;;;;2.08;1.63;;;;;;;;;;10244421;28;20030;-54
2023/11/02 20:18:55;;;;;;;2.40;1.70;;;;;;;;;;10228110;28;20039;-57
2023/11/02 20:23:55;;;;;;;3.85;2.17;;;;;;;;;;10236892;28;20027;-56
2023/11/02 20:28:56;;;;;;;3.15;1.60;;;;;;;;;;10228509;28;20078;-55
2023/11/02 20:33:57;;;;;;;2.78;1.48;;;;;;;;;;10242923;28;20031;-54
2023/11/02 20:38:57;;;;;;;5.55;1.77;;;;;;;;;;10228371;28;20046;-54
2023/11/02 20:43:58;;;;;;;2.08;1.73;;;;;;;;;;10224911;28;20499;-61
2023/11/02 20:48:59;;;;;;;2.00;1.60;;;;;;;;;;10233549;28;20027;-55
2023/11/02 20:53:59;;;;;;;1.77;1.65;;;;;;;;;;10238445;28;20487;-54
2023/11/02 20:59:00;;;;;;;4.28;1.73;;;;;;;;;;10242903;28;20027;-54
2023/11/02 21:04:01;;;;;;;2.88;1.50;;;;;;;;;;10238969;28;20454;-61
2023/11/02 21:09:02;;;;;;;1.63;1.50;;;;;;;;;;10233578;29;20543;-55
2023/11/02 21:14:03;;;;;;;1.75;1.60;;;;;;;;;;10232251;28;20031;-56
2023/11/02 21:19:03;;;;;;;1.60;1.50;;;;;;;;;;10235099;28;20095;-54
2023/11/02 21:24:04;;;;;;;2.42;1.55;;;;;;;;;;10247100;28;20674;-55
2023/11/02 21:29:07;;;;;;;1.85;1.50;;;;;;;;;;10237339;28;20042;-54
2023/11/02 21:34:08;;;;;;;2.10;1.40;;;;;;;;;;10243097;28;20033;-52
2023/11/02 21:39:08;;;;;;;4.63;1.73;;;;;;;;;;10236319;28;20051;-57
2023/11/02 21:44:09;;;;;;;3.00;1.83;;;;;;;;;;10244439;28;20644;-62
2023/11/02 21:49:10;;;;;;;6.82;1.92;;;;;;;;;;10242838;28;20419;-53
2023/11/02 21:54:11;;;;;;;4.35;1.42;;;;;;;;;;10242569;28;20043;-59
2023/11/02 21:59:12;;;;;;;4.18;1.75;;;;;;;;;;10219772;28;20034;-52
2023/11/02 22:04:13;;;;;;;5.88;2.33;;;;;;;;;;10229610;29;20368;-51
2023/11/02 22:09:14;;;;;;;2.92;2.03;;;;;;;;;;10239645;29;20134;-53
2023/11/02 22:14:15;;;;;;;6.13;1.88;;;;;;;;;;10230960;28;20039;-54
2023/11/02 22:19:15;;;;;;;5.07;1.92;;;;;;;;;;10241227;28;20027;-56
2023/11/02 22:24:16;;;;;;;12.35;3.42;;;;;;;;;;10242167;28;20034;-58
2023/11/02 22:29:16;;;;;;;8.80;2.55;;;;;;;;;;10246536;28;20035;-56
2023/11/02 22:34:17;;;;;;;8.10;2.10;;;;;;;;;;10243476;28;20031;-56
2023/11/02 22:39:17;;;;;;;8.20;2.20;;;;;;;;;;10233887;28;20062;-56
2023/11/02 22:44:19;;;;;;;7.72;2.25;;;;;;;;;;10246273;28;20023;-56
2023/11/02 22:49:19;;;;;;;3.90;1.83;;;;;;;;;;10242857;28;20041;-55
2023/11/02 22:54:20;;;;;;;3.65;2.00;;;;;;;;;;10244166;28;20039;-57
2023/11/02 22:59:20;;;;;;;7.30;2.38;;;;;;;;;;10244540;28;20078;-58
2023/11/02 23:04:22;;;;;;;4.47;2.15;;;;;;;;;;10244854;29;20031;-58
2023/11/02 23:09:23;;;;;;;6.78;2.33;;;;;;;;;;10243268;28;20118;-58
2023/11/02 23:14:24;;;;;;;4.13;2.25;;;;;;;;;;10251927;28;20024;-59
2023/11/02 23:19:24;;;;;;;11.20;1.90;;;;;;;;;;10252256;28;20136;-59
2023/11/02 23:24:25;;;;;;;4.57;1.83;;;;;;;;;;10258765;28;20031;-58
2023/11/02 23:29:26;;;;;;;6.13;2.03;;;;;;;;;;10259245;28;20093;-55
2023/11/02 23:34:27;;;;;;;4.63;2.00;;;;;;;;;;10251121;28;20101;-54
2023/11/02 23:39:28;;;;;;;4.53;1.75;;;;;;;;;;10243453;28;20066;-56
2023/11/02 23:44:29;;;;;;;4.38;1.92;;;;;;;;;;10257628;28;20531;-63
2023/11/02 23:49:29;;;;;;;5.63;2.05;;;;;;;;;;10243550;28;20395;-58
2023/11/02 23:54:30;;;;;;;6.25;1.85;;;;;;;;;;10245631;28;20048;-55
2023/11/02 23:59:31;;;;;;;3.45;2.17;;;;;;;;;;10244056;28;20035;-58
